sensor_id;sensor_type;location;lat;lon;timestamp;pressure;altitude;pressure_sealevel;temperature;humidity
9822;BME280;4950;46.042;14.472;2023-04-30T00:00:20;97907.13;;;14.46;83.01
9822;BME280;4950;46.042;14.472;2023-04-30T00:02:46;97904.72;;;14.45;83.09
9822;BME280;4950;46.042;14.472;2023-04-30T00:05:13;97911.94;;;14.42;82.67
9822;BME280;4950;46.042;14.472;2023-04-30T00:07:40;97915.97;;;14.38;82.67
9822;BME280;4950;46.042;14.472;2023-04-30T00:10:09;97917.34;;;14.34;82.72
9822;BME280;4950;46.042;14.472;2023-04-30T00:12:35;97918.16;;;14.28;82.78
9822;BME280;4950;46.042;14.472;2023-04-30T00:15:03;97919.34;;;14.26;82.76
9822;BME280;4950;46.042;14.472;2023-04-30T00:17:29;97913.06;;;14.13;83.15
9822;BME280;4950;46.042;14.472;2023-04-30T00:19:56;97915.66;;;14.07;83.76
9822;BME280;4950;46.042;14.472;2023-04-30T00:22:22;97913.44;;;14.03;83.70
9822;BME280;4950;46.042;14.472;2023-04-30T00:24:49;97908.81;;;14.06;83.72
9822;BME280;4950;46.042;14.472;2023-04-30T00:27:17;97908.22;;;14.03;83.54
9822;BME280;4950;46.042;14.472;2023-04-30T00:29:44;97912.03;;;14.08;83.14
9822;BME280;4950;46.042;14.472;2023-04-30T00:32:10;97918.84;;;14.02;82.83
9822;BME280;4950;46.042;14.472;2023-04-30T00:34:37;97914.03;;;13.99;82.93
9822;BME280;4950;46.042;14.472;2023-04-30T00:37:03;97920.03;;;13.99;82.75
9822;BME280;4950;46.042;14.472;2023-04-30T00:39:30;97925.97;;;13.73;83.32
9822;BME280;4950;46.042;14.472;2023-04-30T00:41:56;97928.34;;;13.68;83.37
9822;BME280;4950;46.042;14.472;2023-04-30T00:44:24;97929.13;;;13.69;83.33
9822;BME280;4950;46.042;14.472;2023-04-30T00:46:51;97927.97;;;13.71;83.15
9822;BME280;4950;46.042;14.472;2023-04-30T00:49:18;97926.34;;;13.70;83.15
9822;BME280;4950;46.042;14.472;2023-04-30T00:51:45;97927.34;;;13.69;83.08
9822;BME280;4950;46.042;14.472;2023-04-30T00:54:12;97928.94;;;13.70;82.76
9822;BME280;4950;46.042;14.472;2023-04-30T00:56:38;97928.72;;;13.65;82.79
9822;BME280;4950;46.042;14.472;2023-04-30T00:59:05;97920.28;;;13.63;82.70
9822;BME280;4950;46.042;14.472;2023-04-30T01:01:33;97925.50;;;13.63;82.52
9822;BME280;4950;46.042;14.472;2023-04-30T01:03:59;97934.09;;;13.57;82.55
9822;BME280;4950;46.042;14.472;2023-04-30T01:06:26;97925.66;;;13.55;82.22
9822;BME280;4950;46.042;14.472;2023-04-30T01:08:53;97930.88;;;13.55;82.38
9822;BME280;4950;46.042;14.472;2023-04-30T01:11:27;97926.19;;;13.43;82.06
9822;BME280;4950;46.042;14.472;2023-04-30T01:14:04;97925.22;;;13.23;83.16
9822;BME280;4950;46.042;14.472;2023-04-30T01:16:43;97934.41;;;13.19;83.23
9822;BME280;4950;46.042;14.472;2023-04-30T01:19:23;97930.00;;;13.19;82.78
9822;BME280;4950;46.042;14.472;2023-04-30T01:21:55;97931.38;;;13.15;83.00
9822;BME280;4950;46.042;14.472;2023-04-30T01:24:37;97937.25;;;12.96;83.89
9822;BME280;4950;46.042;14.472;2023-04-30T01:27:18;97939.78;;;12.89;83.91
9822;BME280;4950;46.042;14.472;2023-04-30T01:29:51;97936.94;;;12.84;83.84
9822;BME280;4950;46.042;14.472;2023-04-30T01:32:18;97930.75;;;12.85;84.01
9822;BME280;4950;46.042;14.472;2023-04-30T01:34:45;97937.38;;;12.88;83.75
9822;BME280;4950;46.042;14.472;2023-04-30T01:37:19;97936.75;;;12.86;83.97
9822;BME280;4950;46.042;14.472;2023-04-30T01:39:57;97929.38;;;12.89;83.54
9822;BME280;4950;46.042;14.472;2023-04-30T01:42:32;97928.75;;;12.87;83.61
9822;BME280;4950;46.042;14.472;2023-04-30T01:45:20;97936.75;;;12.86;83.37
9822;BME280;4950;46.042;14.472;2023-04-30T01:47:52;97936.56;;;12.87;83.51
9822;BME280;4950;46.042;14.472;2023-04-30T01:50:27;97936.06;;;12.77;84.02
9822;BME280;4950;46.042;14.472;2023-04-30T01:52:58;97937.91;;;12.61;84.10
9822;BME280;4950;46.042;14.472;2023-04-30T01:55:27;97929.56;;;12.66;84.15
9822;BME280;4950;46.042;14.472;2023-04-30T01:57:57;97941.34;;;12.62;83.99
9822;BME280;4950;46.042;14.472;2023-04-30T02:00:25;97937.44;;;12.51;84.46
9822;BME280;4950;46.042;14.472;2023-04-30T02:02:52;97938.88;;;12.54;84.38
9822;BME280;4950;46.042;14.472;2023-04-30T02:05:19;97940.03;;;12.51;84.26
9822;BME280;4950;46.042;14.472;2023-04-30T02:07:47;97927.28;;;12.56;84.15
9822;BME280;4950;46.042;14.472;2023-04-30T02:10:16;97928.25;;;12.55;83.92
9822;BME280;4950;46.042;14.472;2023-04-30T02:12:42;97928.06;;;12.57;83.58
9822;BME280;4950;46.042;14.472;2023-04-30T02:15:10;97942.81;;;12.50;83.99
9822;BME280;4950;46.042;14.472;2023-04-30T02:17:38;97943.00;;;12.48;83.80
9822;BME280;4950;46.042;14.472;2023-04-30T02:20:06;97949.03;;;12.49;83.72
9822;BME280;4950;46.042;14.472;2023-04-30T02:22:33;97944.38;;;12.44;83.75
9822;BME280;4950;46.042;14.472;2023-04-30T02:25:00;97954.97;;;12.42;83.56
9822;BME280;4950;46.042;14.472;2023-04-30T02:27:29;97954.53;;;12.39;83.77
9822;BME280;4950;46.042;14.472;2023-04-30T02:29:56;97957.94;;;12.39;83.51
9822;BME280;4950;46.042;14.472;2023-04-30T02:32:23;97950.75;;;12.41;83.50
9822;BME280;4950;46.042;14.472;2023-04-30T02:34:51;97954.16;;;12.42;83.17
9822;BME280;4950;46.042;14.472;2023-04-30T02:37:18;97957.13;;;12.39;82.93
9822;BME280;4950;46.042;14.472;2023-04-30T02:39:44;97950.69;;;12.35;83.36
9822;BME280;4950;46.042;14.472;2023-04-30T02:42:11;97951.13;;;12.38;83.02
9822;BME280;4950;46.042;14.472;2023-04-30T02:44:38;97952.47;;;12.34;83.26
9822;BME280;4950;46.042;14.472;2023-04-30T02:47:04;97957.25;;;12.31;83.18
9822;BME280;4950;46.042;14.472;2023-04-30T02:49:31;97954.81;;;12.29;83.33
9822;BME280;4950;46.042;14.472;2023-04-30T02:51:59;97946.56;;;12.25;83.44
9822;BME280;4950;46.042;14.472;2023-04-30T02:54:25;97948.91;;;12.20;83.67
9822;BME280;4950;46.042;14.472;2023-04-30T02:56:52;97953.94;;;12.22;83.69
9822;BME280;4950;46.042;14.472;2023-04-30T02:59:19;97950.53;;;12.21;83.48
9822;BME280;4950;46.042;14.472;2023-04-30T03:01:45;97953.75;;;12.23;83.67
9822;BME280;4950;46.042;14.472;2023-04-30T03:04:12;97958.34;;;12.21;83.52
9822;BME280;4950;46.042;14.472;2023-04-30T03:06:39;97959.13;;;12.22;83.88
9822;BME280;4950;46.042;14.472;2023-04-30T03:09:06;97958.97;;;12.23;83.55
9822;BME280;4950;46.042;14.472;2023-04-30T03:11:33;97961.91;;;12.20;83.47
9822;BME280;4950;46.042;14.472;2023-04-30T03:14:02;97954.31;;;12.19;83.89
9822;BME280;4950;46.042;14.472;2023-04-30T03:16:28;97958.34;;;12.21;83.79
9822;BME280;4950;46.042;14.472;2023-04-30T03:18:55;97953.94;;;12.22;83.64
9822;BME280;4950;46.042;14.472;2023-04-30T03:21:22;97958.34;;;12.21;83.71
9822;BME280;4950;46.042;14.472;2023-04-30T03:23:49;97949.72;;;12.21;83.70
9822;BME280;4950;46.042;14.472;2023-04-30T03:26:18;97948.66;;;12.15;83.56
9822;BME280;4950;46.042;14.472;2023-04-30T03:28:46;97954.66;;;12.16;83.86
9822;BME280;4950;46.042;14.472;2023-04-30T03:31:12;97949.38;;;12.09;84.35
9822;BME280;4950;46.042;14.472;2023-04-30T03:33:39;97956.56;;;12.07;84.51
9822;BME280;4950;46.042;14.472;2023-04-30T03:36:06;97952.97;;;12.08;85.10
9822;BME280;4950;46.042;14.472;2023-04-30T03:38:32;97945.34;;;12.07;85.42
9822;BME280;4950;46.042;14.472;2023-04-30T03:40:59;97945.09;;;12.01;86.03
9822;BME280;4950;46.042;14.472;2023-04-30T03:43:27;97944.47;;;11.99;86.04
9822;BME280;4950;46.042;14.472;2023-04-30T03:45:53;97950.47;;;12.00;86.37
9822;BME280;4950;46.042;14.472;2023-04-30T03:48:20;97959.25;;;11.99;86.96
9822;BME280;4950;46.042;14.472;2023-04-30T03:50:46;97962.47;;;12.01;87.51
9822;BME280;4950;46.042;14.472;2023-04-30T03:53:13;97956.41;;;11.94;87.89
9822;BME280;4950;46.042;14.472;2023-04-30T03:55:40;97961.59;;;11.94;88.07
9822;BME280;4950;46.042;14.472;2023-04-30T03:58:07;97960.44;;;11.96;87.95
9822;BME280;4950;46.042;14.472;2023-04-30T04:00:35;97962.06;;;11.97;88.04
9822;BME280;4950;46.042;14.472;2023-04-30T04:03:02;97976.03;;;11.96;88.24
9822;BME280;4950;46.042;14.472;2023-04-30T04:05:28;97978.47;;;11.98;88.37
9822;BME280;4950;46.042;14.472;2023-04-30T04:07:55;97974.22;;;11.97;88.14
9822;BME280;4950;46.042;14.472;2023-04-30T04:10:22;97980.06;;;11.99;88.02
9822;BME280;4950;46.042;14.472;2023-04-30T04:12:48;97986.28;;;11.98;88.30
9822;BME280;4950;46.042;14.472;2023-04-30T04:15:15;97986.44;;;11.96;88.04
9822;BME280;4950;46.042;14.472;2023-04-30T04:17:43;97986.00;;;11.93;88.27
9822;BME280;4950;46.042;14.472;2023-04-30T04:20:10;97985.81;;;11.94;88.23
9822;BME280;4950;46.042;14.472;2023-04-30T04:22:37;98000.88;;;11.99;88.28
9822;BME280;4950;46.042;14.472;2023-04-30T04:25:04;98003.47;;;11.99;87.82
9822;BME280;4950;46.042;14.472;2023-04-30T04:27:31;98009.31;;;12.01;88.10
9822;BME280;4950;46.042;14.472;2023-04-30T04:29:57;98009.31;;;12.01;88.36
9822;BME280;4950;46.042;14.472;2023-04-30T04:32:24;98008.16;;;12.03;88.39
9822;BME280;4950;46.042;14.472;2023-04-30T04:34:52;98006.72;;;12.01;88.78
9822;BME280;4950;46.042;14.472;2023-04-30T04:37:21;98012.91;;;12.00;89.28
9822;BME280;4950;46.042;14.472;2023-04-30T04:39:47;98008.50;;;12.00;89.40
9822;BME280;4950;46.042;14.472;2023-04-30T04:42:15;98009.13;;;12.02;89.54
9822;BME280;4950;46.042;14.472;2023-04-30T04:44:41;98015.41;;;12.08;89.57
9822;BME280;4950;46.042;14.472;2023-04-30T04:47:08;98026.63;;;12.09;89.69
9822;BME280;4950;46.042;14.472;2023-04-30T04:49:36;98024.47;;;12.12;89.98
9822;BME280;4950;46.042;14.472;2023-04-30T04:52:05;98032.72;;;12.16;90.40
9822;BME280;4950;46.042;14.472;2023-04-30T04:54:32;98039.75;;;12.15;90.37
9822;BME280;4950;46.042;14.472;2023-04-30T04:56:59;98035.34;;;12.16;90.99
9822;BME280;4950;46.042;14.472;2023-04-30T04:59:27;98040.00;;;12.20;91.11
9822;BME280;4950;46.042;14.472;2023-04-30T05:01:53;98027.63;;;12.22;91.60
9822;BME280;4950;46.042;14.472;2023-04-30T05:04:20;98042.94;;;12.32;91.95
9822;BME280;4950;46.042;14.472;2023-04-30T05:06:47;98043.84;;;12.39;92.28
9822;BME280;4950;46.042;14.472;2023-04-30T05:09:15;98048.53;;;12.44;92.61
9822;BME280;4950;46.042;14.472;2023-04-30T05:11:41;98048.94;;;12.48;92.50
9822;BME280;4950;46.042;14.472;2023-04-30T05:14:10;98047.25;;;12.40;92.43
9822;BME280;4950;46.042;14.472;2023-04-30T05:16:37;98053.06;;;12.42;92.14
9822;BME280;4950;46.042;14.472;2023-04-30T05:19:03;98059.97;;;12.50;92.26
9822;BME280;4950;46.042;14.472;2023-04-30T05:21:30;98054.59;;;12.51;92.10
9822;BME280;4950;46.042;14.472;2023-04-30T05:23:57;98060.09;;;12.56;91.96
9822;BME280;4950;46.042;14.472;2023-04-30T05:26:25;98059.28;;;12.56;91.62
9822;BME280;4950;46.042;14.472;2023-04-30T05:28:52;98069.13;;;12.60;91.49
9822;BME280;4950;46.042;14.472;2023-04-30T05:31:18;98072.19;;;12.64;91.65
9822;BME280;4950;46.042;14.472;2023-04-30T05:33:45;98073.16;;;12.78;90.89
9822;BME280;4950;46.042;14.472;2023-04-30T05:36:12;98075.31;;;12.59;91.01
9822;BME280;4950;46.042;14.472;2023-04-30T05:38:39;98080.81;;;12.50;92.08
9822;BME280;4950;46.042;14.472;2023-04-30T05:41:06;98082.78;;;12.62;92.20
9822;BME280;4950;46.042;14.472;2023-04-30T05:43:34;98091.06;;;12.66;90.67
9822;BME280;4950;46.042;14.472;2023-04-30T05:46:00;98093.13;;;12.56;90.61
9822;BME280;4950;46.042;14.472;2023-04-30T05:48:27;98095.63;;;12.49;91.53
9822;BME280;4950;46.042;14.472;2023-04-30T05:50:54;98095.19;;;12.45;90.48
9822;BME280;4950;46.042;14.472;2023-04-30T05:53:20;98097.44;;;12.34;91.73
9822;BME280;4950;46.042;14.472;2023-04-30T05:55:47;98092.16;;;12.27;91.87
9822;BME280;4950;46.042;14.472;2023-04-30T05:58:14;98097.34;;;12.12;92.72
9822;BME280;4950;46.042;14.472;2023-04-30T06:00:42;98090.63;;;12.03;93.90
9822;BME280;4950;46.042;14.472;2023-04-30T06:03:08;98095.03;;;12.17;94.02
9822;BME280;4950;46.042;14.472;2023-04-30T06:05:35;98091.41;;;12.18;92.72
9822;BME280;4950;46.042;14.472;2023-04-30T06:08:02;98101.41;;;12.15;93.29
9822;BME280;4950;46.042;14.472;2023-04-30T06:10:29;98108.03;;;12.17;93.60
9822;BME280;4950;46.042;14.472;2023-04-30T06:12:55;98106.50;;;12.23;93.77
9822;BME280;4950;46.042;14.472;2023-04-30T06:15:22;98100.75;;;12.28;93.52
9822;BME280;4950;46.042;14.472;2023-04-30T06:17:50;98109.47;;;12.35;93.22
9822;BME280;4950;46.042;14.472;2023-04-30T06:20:16;98115.56;;;12.42;93.21
9822;BME280;4950;46.042;14.472;2023-04-30T06:22:43;98115.22;;;12.45;92.99
9822;BME280;4950;46.042;14.472;2023-04-30T06:25:10;98111.88;;;12.51;92.54
9822;BME280;4950;46.042;14.472;2023-04-30T06:27:36;98117.38;;;12.56;92.55
9822;BME280;4950;46.042;14.472;2023-04-30T06:30:04;98113.88;;;12.64;92.48
9822;BME280;4950;46.042;14.472;2023-04-30T06:32:30;98108.91;;;12.69;92.42
9822;BME280;4950;46.042;14.472;2023-04-30T06:34:58;98116.09;;;12.67;93.01
9822;BME280;4950;46.042;14.472;2023-04-30T06:37:25;98117.00;;;12.74;92.86
9822;BME280;4950;46.042;14.472;2023-04-30T06:39:52;98117.63;;;12.76;92.99
9822;BME280;4950;46.042;14.472;2023-04-30T06:42:18;98121.91;;;12.84;93.32
9822;BME280;4950;46.042;14.472;2023-04-30T06:44:45;98125.03;;;12.94;93.20
9822;BME280;4950;46.042;14.472;2023-04-30T06:47:11;98129.72;;;12.99;93.02
9822;BME280;4950;46.042;14.472;2023-04-30T06:49:38;98123.69;;;13.20;92.51
9822;BME280;4950;46.042;14.472;2023-04-30T06:52:06;98125.16;;;13.22;92.16
9822;BME280;4950;46.042;14.472;2023-04-30T06:54:32;98132.72;;;13.32;92.15
9822;BME280;4950;46.042;14.472;2023-04-30T06:56:59;98140.53;;;13.54;89.90
9822;BME280;4950;46.042;14.472;2023-04-30T06:59:26;98141.66;;;13.66;89.49
9822;BME280;4950;46.042;14.472;2023-04-30T07:01:52;98142.25;;;13.68;88.67
9822;BME280;4950;46.042;14.472;2023-04-30T07:04:19;98145.06;;;13.67;89.12
9822;BME280;4950;46.042;14.472;2023-04-30T07:06:45;98152.53;;;13.70;89.42
9822;BME280;4950;46.042;14.472;2023-04-30T07:09:13;98145.59;;;13.83;87.83
9822;BME280;4950;46.042;14.472;2023-04-30T07:11:40;98146.69;;;13.96;87.06
9822;BME280;4950;46.042;14.472;2023-04-30T07:14:07;98143.91;;;13.97;87.45
9822;BME280;4950;46.042;14.472;2023-04-30T07:16:34;98148.19;;;14.05;86.46
9822;BME280;4950;46.042;14.472;2023-04-30T07:19:00;98140.00;;;14.08;86.81
9822;BME280;4950;46.042;14.472;2023-04-30T07:21:27;98136.75;;;14.06;86.19
9822;BME280;4950;46.042;14.472;2023-04-30T07:23:56;98137.78;;;14.12;86.17
9822;BME280;4950;46.042;14.472;2023-04-30T07:26:24;98134.47;;;14.25;84.34
9822;BME280;4950;46.042;14.472;2023-04-30T07:28:51;98143.50;;;14.22;85.01
9822;BME280;4950;46.042;14.472;2023-04-30T07:31:17;98143.69;;;14.20;84.66
9822;BME280;4950;46.042;14.472;2023-04-30T07:33:44;98144.13;;;14.31;84.20
9822;BME280;4950;46.042;14.472;2023-04-30T07:36:11;98136.16;;;14.39;83.45
9822;BME280;4950;46.042;14.472;2023-04-30T07:38:38;98147.00;;;14.36;83.73
9822;BME280;4950;46.042;14.472;2023-04-30T07:41:04;98139.44;;;14.48;82.76
9822;BME280;4950;46.042;14.472;2023-04-30T07:43:33;98146.53;;;14.60;82.37
9822;BME280;4950;46.042;14.472;2023-04-30T07:46:00;98136.09;;;14.60;81.59
9822;BME280;4950;46.042;14.472;2023-04-30T07:48:28;98141.19;;;14.69;81.25
9822;BME280;4950;46.042;14.472;2023-04-30T07:50:54;98144.25;;;14.86;81.90
9822;BME280;4950;46.042;14.472;2023-04-30T07:53:22;98141.31;;;15.02;80.69
9822;BME280;4950;46.042;14.472;2023-04-30T07:55:48;98137.53;;;15.18;79.06
9822;BME280;4950;46.042;14.472;2023-04-30T07:58:15;98144.81;;;15.36;77.81
9822;BME280;4950;46.042;14.472;2023-04-30T08:00:43;98143.03;;;15.50;77.75
9822;BME280;4950;46.042;14.472;2023-04-30T08:03:10;98149.09;;;15.64;74.98
9822;BME280;4950;46.042;14.472;2023-04-30T08:05:36;98138.03;;;15.68;75.03
9822;BME280;4950;46.042;14.472;2023-04-30T08:08:03;98142.44;;;15.68;75.14
9822;BME280;4950;46.042;14.472;2023-04-30T08:10:30;98140.88;;;15.80;73.71
9822;BME280;4950;46.042;14.472;2023-04-30T08:12:57;98144.91;;;15.83;72.82
9822;BME280;4950;46.042;14.472;2023-04-30T08:15:23;98139.47;;;15.84;73.14
9822;BME280;4950;46.042;14.472;2023-04-30T08:17:52;98142.91;;;15.85;72.55
9822;BME280;4950;46.042;14.472;2023-04-30T08:20:18;98137.66;;;15.98;71.51
9822;BME280;4950;46.042;14.472;2023-04-30T08:22:47;98142.09;;;15.97;71.42
9822;BME280;4950;46.042;14.472;2023-04-30T08:25:14;98151.56;;;15.98;70.47
9822;BME280;4950;46.042;14.472;2023-04-30T08:27:40;98151.75;;;15.90;70.23
9822;BME280;4950;46.042;14.472;2023-04-30T08:30:07;98162.44;;;15.89;70.42
9822;BME280;4950;46.042;14.472;2023-04-30T08:32:35;98167.84;;;15.87;70.05
9822;BME280;4950;46.042;14.472;2023-04-30T08:35:03;98156.19;;;15.76;70.84
9822;BME280;4950;46.042;14.472;2023-04-30T08:37:30;98157.56;;;15.86;70.46
9822;BME280;4950;46.042;14.472;2023-04-30T08:39:57;98152.16;;;16.01;70.30
9822;BME280;4950;46.042;14.472;2023-04-30T08:42:29;98150.53;;;16.06;69.77
9822;BME280;4950;46.042;14.472;2023-04-30T08:44:57;98140.88;;;16.13;68.52
9822;BME280;4950;46.042;14.472;2023-04-30T08:47:26;98141.69;;;16.07;69.00
9822;BME280;4950;46.042;14.472;2023-04-30T08:49:52;98146.69;;;16.09;68.21
9822;BME280;4950;46.042;14.472;2023-04-30T08:52:21;98155.56;;;16.14;66.80
9822;BME280;4950;46.042;14.472;2023-04-30T08:54:49;98155.75;;;16.13;66.54
9822;BME280;4950;46.042;14.472;2023-04-30T08:57:17;98159.41;;;16.12;66.29
9822;BME280;4950;46.042;14.472;2023-04-30T08:59:44;98151.34;;;16.13;66.12
9822;BME280;4950;46.042;14.472;2023-04-30T09:02:11;98146.50;;;16.10;66.67
9822;BME280;4950;46.042;14.472;2023-04-30T09:04:38;98142.84;;;16.25;66.33
9822;BME280;4950;46.042;14.472;2023-04-30T09:07:05;98147.69;;;16.28;66.01
9822;BME280;4950;46.042;14.472;2023-04-30T09:09:38;98148.88;;;16.45;65.49
9822;BME280;4950;46.042;14.472;2023-04-30T09:12:12;98146.25;;;16.45;65.60
9822;BME280;4950;46.042;14.472;2023-04-30T09:14:39;98142.19;;;16.56;64.77
9822;BME280;4950;46.042;14.472;2023-04-30T09:17:07;98150.44;;;16.59;64.60
9822;BME280;4950;46.042;14.472;2023-04-30T09:19:34;98142.19;;;16.56;63.81
9822;BME280;4950;46.042;14.472;2023-04-30T09:22:29;98147.22;;;16.57;63.37
9822;BME280;4950;46.042;14.472;2023-04-30T09:24:57;98139.19;;;16.52;63.17
9822;BME280;4950;46.042;14.472;2023-04-30T09:27:23;98139.16;;;16.59;63.61
9822;BME280;4950;46.042;14.472;2023-04-30T09:29:50;98136.69;;;16.71;61.79
9822;BME280;4950;46.042;14.472;2023-04-30T09:32:16;98135.72;;;16.72;62.20
9822;BME280;4950;46.042;14.472;2023-04-30T09:34:43;98138.94;;;16.74;62.29
9822;BME280;4950;46.042;14.472;2023-04-30T09:37:10;98137.69;;;16.83;62.59
9822;BME280;4950;46.042;14.472;2023-04-30T09:39:47;98126.16;;;16.91;61.28
9822;BME280;4950;46.042;14.472;2023-04-30T09:42:15;98127.00;;;16.85;61.42
9822;BME280;4950;46.042;14.472;2023-04-30T09:44:42;98138.47;;;16.90;61.34
9822;BME280;4950;46.042;14.472;2023-04-30T09:47:13;98127.78;;;16.92;62.22
9822;BME280;4950;46.042;14.472;2023-04-30T09:49:41;98132.78;;;17.00;60.81
9822;BME280;4950;46.042;14.472;2023-04-30T09:52:09;98119.41;;;17.08;60.80
9822;BME280;4950;46.042;14.472;2023-04-30T09:54:37;98121.44;;;17.06;61.02
9822;BME280;4950;46.042;14.472;2023-04-30T09:57:03;98126.69;;;17.06;60.81
9822;BME280;4950;46.042;14.472;2023-04-30T09:59:35;98110.56;;;17.09;59.39
9822;BME280;4950;46.042;14.472;2023-04-30T10:02:04;98101.38;;;17.25;60.04
9822;BME280;4950;46.042;14.472;2023-04-30T10:04:34;98106.34;;;17.40;58.42
9822;BME280;4950;46.042;14.472;2023-04-30T10:07:03;98102.84;;;17.46;58.56
9822;BME280;4950;46.042;14.472;2023-04-30T10:09:37;98107.75;;;17.36;58.24
9822;BME280;4950;46.042;14.472;2023-04-30T10:12:08;98107.16;;;17.34;60.58
9822;BME280;4950;46.042;14.472;2023-04-30T10:14:40;98099.88;;;17.36;61.71
9822;BME280;4950;46.042;14.472;2023-04-30T10:17:13;98100.13;;;17.34;61.40
9822;BME280;4950;46.042;14.472;2023-04-30T10:19:44;98096.31;;;17.30;62.52
9822;BME280;4950;46.042;14.472;2023-04-30T10:22:11;98096.91;;;17.32;61.88
9822;BME280;4950;46.042;14.472;2023-04-30T10:24:38;98085.38;;;17.33;61.83
9822;BME280;4950;46.042;14.472;2023-04-30T10:27:05;98092.84;;;17.36;61.44
9822;BME280;4950;46.042;14.472;2023-04-30T10:29:32;98074.59;;;17.42;60.32
9822;BME280;4950;46.042;14.472;2023-04-30T10:32:00;98079.84;;;17.42;60.81
9822;BME280;4950;46.042;14.472;2023-04-30T10:34:40;98073.97;;;17.46;58.77
9822;BME280;4950;46.042;14.472;2023-04-30T10:37:14;98075.09;;;17.57;59.91
9822;BME280;4950;46.042;14.472;2023-04-30T10:39:43;98066.75;;;17.67;59.15
9822;BME280;4950;46.042;14.472;2023-04-30T10:42:10;98060.91;;;17.65;57.85
9822;BME280;4950;46.042;14.472;2023-04-30T10:44:38;98076.28;;;17.61;57.43
9822;BME280;4950;46.042;14.472;2023-04-30T10:47:07;98069.63;;;17.59;58.10
9822;BME280;4950;46.042;14.472;2023-04-30T10:49:33;98064.19;;;17.60;57.13
9822;BME280;4950;46.042;14.472;2023-04-30T10:52:01;98050.69;;;17.56;57.48
9822;BME280;4950;46.042;14.472;2023-04-30T10:54:30;98049.00;;;17.62;58.38
9822;BME280;4950;46.042;14.472;2023-04-30T10:57:08;98068.78;;;17.65;58.00
9822;BME280;4950;46.042;14.472;2023-04-30T10:59:36;98054.19;;;17.69;58.92
9822;BME280;4950;46.042;14.472;2023-04-30T11:02:02;98057.56;;;17.76;59.41
9822;BME280;4950;46.042;14.472;2023-04-30T11:04:30;98061.34;;;17.87;59.73
9822;BME280;4950;46.042;14.472;2023-04-30T11:07:01;98060.91;;;17.90;59.41
9822;BME280;4950;46.042;14.472;2023-04-30T11:09:38;98059.47;;;17.94;58.46
9822;BME280;4950;46.042;14.472;2023-04-30T11:12:10;98058.50;;;17.88;58.30
9822;BME280;4950;46.042;14.472;2023-04-30T11:14:39;98058.06;;;17.91;57.98
9822;BME280;4950;46.042;14.472;2023-04-30T11:17:08;98061.13;;;17.88;59.34
9822;BME280;4950;46.042;14.472;2023-04-30T11:19:41;98050.19;;;17.91;58.47
9822;BME280;4950;46.042;14.472;2023-04-30T11:22:15;98053.78;;;17.97;57.10
9822;BME280;4950;46.042;14.472;2023-04-30T11:25:01;98046.91;;;17.96;56.71
9822;BME280;4950;46.042;14.472;2023-04-30T11:27:29;98043.06;;;17.99;55.33
9822;BME280;4950;46.042;14.472;2023-04-30T11:29:57;98035.19;;;17.99;55.88
9822;BME280;4950;46.042;14.472;2023-04-30T11:32:25;98037.31;;;18.08;55.77
9822;BME280;4950;46.042;14.472;2023-04-30T11:34:53;98031.44;;;18.25;55.68
9822;BME280;4950;46.042;14.472;2023-04-30T11:37:23;98033.94;;;18.38;55.67
9822;BME280;4950;46.042;14.472;2023-04-30T11:39:51;98036.25;;;18.46;55.21
9822;BME280;4950;46.042;14.472;2023-04-30T11:42:18;98046.91;;;18.51;55.38
9822;BME280;4950;46.042;14.472;2023-04-30T11:44:45;98042.38;;;18.59;55.07
9822;BME280;4950;46.042;14.472;2023-04-30T11:47:13;98032.56;;;18.66;54.02
9822;BME280;4950;46.042;14.472;2023-04-30T11:49:39;98035.25;;;18.78;54.29
9822;BME280;4950;46.042;14.472;2023-04-30T11:52:08;98027.78;;;18.93;53.62
9822;BME280;4950;46.042;14.472;2023-04-30T11:54:35;98030.66;;;19.03;53.20
9822;BME280;4950;46.042;14.472;2023-04-30T11:57:03;98028.66;;;19.17;52.84
9822;BME280;4950;46.042;14.472;2023-04-30T11:59:31;98024.53;;;19.21;52.92
9822;BME280;4950;46.042;14.472;2023-04-30T12:01:57;98025.59;;;19.32;53.90
9822;BME280;4950;46.042;14.472;2023-04-30T12:04:25;98031.09;;;19.42;51.90
9822;BME280;4950;46.042;14.472;2023-04-30T12:06:51;98021.69;;;19.34;52.12
9822;BME280;4950;46.042;14.472;2023-04-30T12:09:19;98015.06;;;19.44;52.22
9822;BME280;4950;46.042;14.472;2023-04-30T12:11:46;98009.81;;;19.56;52.05
9822;BME280;4950;46.042;14.472;2023-04-30T12:14:13;98009.09;;;19.60;50.29
9822;BME280;4950;46.042;14.472;2023-04-30T12:16:41;98008.19;;;19.66;51.38
9822;BME280;4950;46.042;14.472;2023-04-30T12:19:08;98003.75;;;19.67;49.27
9822;BME280;4950;46.042;14.472;2023-04-30T12:21:35;97998.22;;;19.68;50.66
9822;BME280;4950;46.042;14.472;2023-04-30T12:24:03;97999.75;;;19.76;49.85
9822;BME280;4950;46.042;14.472;2023-04-30T12:26:37;98004.13;;;19.82;49.88
9822;BME280;4950;46.042;14.472;2023-04-30T12:29:07;98004.00;;;19.77;50.12
9822;BME280;4950;46.042;14.472;2023-04-30T12:31:35;98000.22;;;19.73;50.35
9822;BME280;4950;46.042;14.472;2023-04-30T12:34:05;97993.22;;;19.67;50.09
9822;BME280;4950;46.042;14.472;2023-04-30T12:36:33;97993.31;;;19.60;50.24
9822;BME280;4950;46.042;14.472;2023-04-30T12:39:07;97995.03;;;19.54;50.11
9822;BME280;4950;46.042;14.472;2023-04-30T12:41:38;97987.69;;;19.57;49.70
9822;BME280;4950;46.042;14.472;2023-04-30T12:44:16;97988.16;;;19.53;49.58
9822;BME280;4950;46.042;14.472;2023-04-30T12:46:43;97984.84;;;19.58;49.44
9822;BME280;4950;46.042;14.472;2023-04-30T12:49:11;97979.22;;;19.54;48.96
9822;BME280;4950;46.042;14.472;2023-04-30T12:51:41;97981.84;;;19.43;48.89
9822;BME280;4950;46.042;14.472;2023-04-30T12:54:07;97976.03;;;19.41;49.00
9822;BME280;4950;46.042;14.472;2023-04-30T12:56:34;97972.25;;;19.48;49.22
9822;BME280;4950;46.042;14.472;2023-04-30T12:59:02;97974.88;;;19.60;49.15
9822;BME280;4950;46.042;14.472;2023-04-30T13:01:43;97969.03;;;19.82;49.87
9822;BME280;4950;46.042;14.472;2023-04-30T13:04:10;97958.94;;;20.02;48.12
9822;BME280;4950;46.042;14.472;2023-04-30T13:06:37;97966.28;;;20.00;47.69
9822;BME280;4950;46.042;14.472;2023-04-30T13:09:03;97957.31;;;20.01;48.64
9822;BME280;4950;46.042;14.472;2023-04-30T13:11:30;97957.44;;;20.06;48.23
9822;BME280;4950;46.042;14.472;2023-04-30T13:13:56;97953.44;;;20.04;47.98